CDT,Max TemperatureF,Mean TemperatureF,Min TemperatureF,Max Dew PointF,MeanDew PointF,Min DewpointF,Max Humidity, Mean Humidity, Min Humidity, Max Sea Level PressureIn, Mean Sea Level PressureIn, Min Sea Level PressureIn, Max VisibilityMiles, Mean VisibilityMiles, Min VisibilityMiles, Max Wind SpeedMPH, Mean Wind SpeedMPH, Max Gust SpeedMPH,PrecipitationIn, CloudCover, Events, WindDirDegrees
2012-10-1,66,58,50,55,48,45,100,71,49,29.85,29.81,29.77,10.0,10.0,7.0,9,2,16,0.00,0,,357
2012-10-2,71,58,44,54,47,41,100,70,35,29.90,29.85,29.80,10.0,10.0,8.0,10,2,,0.00,2,,350
2012-10-3,73,65,57,59,55,50,94,74,53,30.05,29.97,29.90,10.0,9.9,5.0,8,1,,0.00,6,,179
2012-10-4,80,66,53,59,54,45,100,71,42,30.20,30.12,30.05,10.0,10.0,10.0,16,3,23,0.00,5,,279
2012-10-5,53,46,37,46,43,36,100,87,67,30.24,30.21,30.17,10.0,9.1,2.5,12,5,18,0.28,6,Rain-Thunderstorm,346
2012-10-6,48,42,35,36,33,30,100,74,50,30.27,30.24,30.22,10.0,10.0,10.0,10,4,,0.00,2,,330
2012-10-7,53,42,32,37,32,27,100,71,35,30.30,30.23,30.16,10.0,10.0,10.0,14,2,18,0.00,2,,297
2012-10-8,59,44,30,37,33,30,100,70,36,30.22,30.14,30.05,10.0,9.8,4.0,14,3,21,0.00,0,,178
2012-10-9,66,54,41,48,41,37,93,63,37,30.06,29.99,29.90,10.0,9.9,5.0,20,7,26,0.00,2,Rain,168
2012-10-10,57,47,37,43,34,27,100,66,33,30.29,30.20,30.07,10.0,9.9,5.0,16,4,21,0.00,1,Rain,310
2012-10-11,62,47,32,54,39,32,100,73,42,30.24,30.19,30.11,10.0,9.5,2.0,13,3,17,0.02,4,Rain,173
2012-10-12,64,56,48,54,47,37,100,77,52,30.36,30.26,30.19,10.0,8.4,2.0,8,2,,0.00,5,,97
2012-10-13,77,64,51,66,60,50,100,81,61,30.19,29.99,29.78,10.0,9.3,3.0,16,7,25,0.02,6,Rain-Thunderstorm,167
2012-10-14,71,60,50,66,57,48,100,82,60,29.97,29.77,29.64,10.0,8.9,1.8,21,11,31,0.26,5,Rain,223
2012-10-15,71,56,41,50,45,41,100,76,33,30.02,29.97,29.93,10.0,9.0,1.5,8,1,,0.00,0,,294
2012-10-16,82,65,48,54,47,45,100,59,26,29.93,29.74,29.61,10.0,6.9,1.8,21,6,23,0.00,0,,175
2012-10-17,68,60,53,59,54,45,100,78,49,29.64,29.53,29.37,10.0,7.6,1.5,20,9,34,0.33,5,Rain-Thunderstorm,186
2012-10-18,59,52,46,48,36,30,100,55,34,29.64,29.61,29.58,10.0,10.0,9.0,22,6,41,0.00,4,Rain,268
2012-10-19,53,50,46,46,42,39,93,77,62,29.80,29.68,29.57,10.0,9.6,4.0,23,10,29,0.00,8,Rain,281
2012-10-20,66,57,48,45,44,43,87,70,45,29.92,29.85,29.80,10.0,9.8,5.0,9,4,,0.00,3,,273
2012-10-21,82,65,48,64,53,45,93,65,45,29.93,29.89,29.83,10.0,9.6,5.0,13,7,17,0.00,2,,140
2012-10-22,80,74,68,66,64,59,88,73,61,29.94,29.90,29.86,10.0,9.6,7.0,12,9,17,0.00,7,Rain-Thunderstorm,164
2012-10-23,82,73,64,66,62,57,100,70,48,29.96,29.89,29.83,10.0,9.4,1.5,14,7,17,0.14,2,Rain-Thunderstorm,162
2012-10-24,82,73,64,66,62,59,83,69,51,29.96,29.91,29.84,10.0,9.0,3.0,16,7,23,0.00,2,,153
2012-10-25,80,62,44,63,56,36,100,77,54,30.18,29.89,29.77,10.0,9.3,2.0,25,11,36,0.37,4,Rain-Thunderstorm,209
2012-10-26,48,42,37,36,30,27,75,61,46,30.36,30.30,30.19,10.0,9.6,3.0,17,11,25,0.00,2,,346
2012-10-27,50,41,32,32,29,27,87,65,43,30.34,30.28,30.22,10.0,10.0,9.0,12,2,17,0.00,0,,353
2012-10-28,50,40,30,30,28,25,93,69,37,30.29,30.26,30.23,10.0,9.7,5.0,13,2,18,0.00,0,,343
2012-10-29,53,40,28,32,26,18,100,63,24,30.34,30.25,30.13,10.0,9.9,7.0,9,1,,0.00,1,,340
2012-10-30,57,44,32,32,27,21,93,56,28,30.13,30.00,29.90,10.0,10.0,10.0,18,4,25,0.00,0,,322
2012-10-31,57,46,33,30,24,16,75,51,20,30.00,29.97,29.94,10.0,10.0,9.0,17,3,22,0.00,0,Rain,305